createdAt,value
2022-12-27T00:00:07.503Z,0.00
2022-12-27T00:01:07.524Z,0.00
2022-12-27T00:02:07.522Z,0.00
2022-12-27T00:03:07.535Z,0.00
2022-12-27T00:04:07.511Z,0.00
2022-12-27T00:05:07.465Z,0.00
2022-12-27T00:06:07.447Z,0.00
2022-12-27T00:07:07.435Z,0.00
2022-12-27T00:08:07.426Z,0.00
2022-12-27T00:09:07.421Z,0.00
2022-12-27T00:10:07.399Z,0.00
2022-12-27T00:11:07.404Z,0.00
2022-12-27T00:12:07.380Z,0.00
2022-12-27T00:13:07.605Z,0.00
2022-12-27T00:14:07.363Z,0.00
2022-12-27T00:15:07.377Z,0.00
2022-12-27T00:16:07.663Z,0.00
2022-12-27T00:17:07.340Z,0.00
2022-12-27T00:18:07.319Z,0.00
2022-12-27T00:19:07.327Z,0.00
2022-12-27T00:20:11.379Z,0.00
2022-12-27T00:21:07.302Z,0.00
2022-12-27T00:22:07.290Z,0.00
2022-12-27T00:23:07.277Z,0.00
2022-12-27T00:24:07.271Z,0.00
2022-12-27T00:25:07.260Z,0.00
2022-12-27T00:26:07.255Z,0.00
2022-12-27T00:27:07.238Z,0.00
2022-12-27T00:28:07.226Z,0.00
2022-12-27T00:29:07.214Z,0.00
2022-12-27T00:30:07.214Z,0.00
2022-12-27T00:31:07.237Z,0.00
2022-12-27T00:32:07.204Z,0.00
2022-12-27T00:33:07.183Z,0.00
2022-12-27T00:34:07.200Z,0.00
2022-12-27T00:35:07.169Z,0.00
2022-12-27T00:36:07.157Z,0.00
2022-12-27T00:37:07.145Z,0.00
2022-12-27T00:38:07.124Z,0.00
2022-12-27T00:39:07.123Z,0.00
2022-12-27T00:40:13.117Z,0.00
2022-12-27T00:41:07.100Z,0.00
2022-12-27T00:42:07.085Z,0.00
2022-12-27T00:43:07.079Z,0.00
2022-12-27T00:44:07.073Z,0.00
2022-12-27T00:45:07.058Z,0.00
2022-12-27T00:46:07.098Z,0.00
2022-12-27T00:47:07.050Z,0.00
2022-12-27T00:48:07.035Z,0.00
2022-12-27T00:49:07.093Z,0.00
2022-12-27T00:50:07.010Z,0.00
2022-12-27T00:51:07.001Z,0.00
2022-12-27T00:52:07.000Z,0.00
2022-12-27T00:53:06.973Z,0.00
2022-12-27T00:54:09.037Z,0.00
2022-12-27T00:55:06.950Z,0.00
2022-12-27T00:56:06.953Z,0.00
2022-12-27T00:57:06.927Z,0.00
2022-12-27T00:58:06.939Z,0.00
2022-12-27T00:59:07.136Z,0.00
2022-12-27T01:00:10.452Z,0.00
2022-12-27T01:01:06.934Z,0.00
2022-12-27T01:02:06.947Z,0.00
2022-12-27T01:03:06.870Z,0.00
2022-12-27T01:04:06.955Z,0.00
2022-12-27T01:05:12.851Z,0.00
2022-12-27T01:06:06.846Z,0.00
2022-12-27T01:07:06.823Z,0.00
2022-12-27T01:08:06.847Z,0.00
2022-12-27T01:09:06.887Z,0.00
2022-12-27T01:10:06.806Z,0.00
2022-12-27T01:11:06.867Z,0.00
2022-12-27T01:12:06.781Z,0.00
2022-12-27T01:13:12.821Z,0.00
2022-12-27T01:14:06.756Z,0.00
2022-12-27T01:15:06.742Z,0.00
2022-12-27T01:16:06.789Z,0.00
2022-12-27T01:17:06.732Z,0.00
2022-12-27T01:18:06.717Z,0.00
2022-12-27T01:19:06.763Z,0.00
2022-12-27T01:20:06.708Z,0.00
2022-12-27T01:21:12.686Z,0.00
2022-12-27T01:22:06.677Z,0.00
2022-12-27T01:23:06.662Z,0.00
2022-12-27T01:24:06.679Z,0.00
2022-12-27T01:25:06.844Z,0.00
2022-12-27T01:26:06.842Z,0.00
2022-12-27T01:27:06.623Z,0.00
2022-12-27T01:28:06.613Z,0.00
2022-12-27T01:29:06.597Z,0.00
2022-12-27T01:30:06.614Z,0.00
2022-12-27T01:31:06.584Z,0.00
2022-12-27T01:32:06.627Z,0.00
2022-12-27T01:33:06.558Z,0.00
2022-12-27T01:34:06.594Z,0.00
2022-12-27T01:35:06.538Z,0.00
2022-12-27T01:37:06.582Z,0.00
2022-12-27T01:38:06.516Z,0.00
2022-12-27T01:39:06.912Z,0.00
2022-12-27T01:40:06.560Z,0.00
2022-12-27T01:41:06.481Z,0.00
2022-12-27T01:42:06.482Z,0.00
2022-12-27T01:44:06.457Z,0.00
2022-12-27T01:45:06.444Z,0.00
2022-12-27T01:46:06.467Z,0.00
2022-12-27T01:47:06.414Z,0.00
2022-12-27T01:48:06.409Z,0.00
2022-12-27T01:49:06.590Z,0.00
2022-12-27T01:50:06.403Z,0.00
2022-12-27T01:51:06.376Z,0.00
2022-12-27T01:52:06.390Z,0.00
2022-12-27T01:53:06.357Z,0.00
2022-12-27T01:54:06.353Z,0.00
2022-12-27T01:55:06.335Z,0.00
2022-12-27T01:56:06.352Z,0.00
2022-12-27T01:57:06.323Z,0.00
2022-12-27T01:58:06.400Z,0.00
2022-12-27T01:59:06.310Z,0.00
2022-12-27T02:00:06.282Z,0.00
2022-12-27T02:01:06.335Z,0.00
2022-12-27T02:02:06.502Z,0.00
2022-12-27T02:03:06.428Z,0.00
2022-12-27T02:04:06.316Z,0.00
2022-12-27T02:05:06.243Z,0.00
2022-12-27T02:06:06.225Z,0.00
2022-12-27T02:07:06.246Z,0.00
2022-12-27T02:08:06.202Z,0.00
2022-12-27T02:09:06.205Z,0.00
2022-12-27T02:10:06.247Z,0.00
2022-12-27T02:11:06.190Z,0.00
2022-12-27T02:12:06.183Z,0.00
2022-12-27T02:13:06.162Z,0.00
2022-12-27T02:14:06.145Z,0.00
2022-12-27T02:15:06.140Z,0.00
2022-12-27T02:16:06.328Z,0.00
2022-12-27T02:17:06.171Z,0.00
2022-12-27T02:18:06.097Z,0.00
2022-12-27T02:19:06.109Z,0.00
2022-12-27T02:33:05.956Z,0.00
2022-12-27T02:34:05.932Z,0.00
2022-12-27T02:35:06.142Z,0.00
2022-12-27T02:36:05.923Z,0.00
2022-12-27T02:37:05.928Z,0.00
2022-12-27T02:38:05.896Z,0.00
2022-12-27T02:39:05.899Z,0.00
2022-12-27T02:40:05.884Z,0.00
2022-12-27T02:41:05.876Z,0.00
2022-12-27T02:42:05.869Z,0.00
2022-12-27T02:43:05.859Z,0.00
2022-12-27T02:44:05.854Z,0.00
2022-12-27T02:45:05.830Z,0.00
2022-12-27T02:46:05.865Z,0.00
2022-12-27T02:47:05.813Z,0.00
2022-12-27T02:48:05.811Z,0.00
2022-12-27T02:49:05.787Z,0.00
2022-12-27T02:50:05.772Z,0.00
2022-12-27T02:51:05.971Z,0.00
2022-12-27T02:52:11.770Z,0.00
2022-12-27T02:53:05.776Z,0.00
2022-12-27T02:54:05.733Z,0.00
2022-12-27T02:55:05.733Z,0.00
2022-12-27T02:56:05.916Z,0.00
2022-12-27T02:57:11.719Z,0.00
2022-12-27T02:58:05.686Z,0.00
2022-12-27T02:59:05.690Z,0.00
2022-12-27T03:00:05.693Z,0.00
2022-12-27T03:01:11.784Z,0.00
2022-12-27T03:02:05.818Z,0.00
2022-12-27T03:03:05.705Z,0.00
2022-12-27T03:04:05.697Z,0.00
2022-12-27T03:05:05.640Z,0.00
2022-12-27T03:06:05.608Z,0.00
2022-12-27T03:07:05.627Z,0.00
2022-12-27T03:08:05.604Z,0.00
2022-12-27T03:09:11.597Z,0.00
2022-12-27T03:10:05.654Z,0.00
2022-12-27T03:11:05.571Z,0.00
2022-12-27T03:12:05.546Z,0.00
2022-12-27T03:13:05.565Z,0.00
2022-12-27T03:14:05.550Z,0.00
2022-12-27T03:15:05.525Z,0.00
2022-12-27T03:16:05.655Z,0.00
2022-12-27T03:17:05.515Z,0.00
2022-12-27T03:18:05.484Z,0.00
2022-12-27T03:19:05.497Z,0.00
2022-12-27T03:20:05.542Z,0.00
2022-12-27T03:21:05.466Z,0.00
2022-12-27T03:22:05.490Z,0.00
2022-12-27T03:23:05.445Z,0.00
2022-12-27T03:24:05.432Z,0.00
2022-12-27T03:25:05.426Z,0.00
2022-12-27T03:26:05.485Z,0.00
2022-12-27T03:27:05.461Z,0.00
2022-12-27T03:28:05.588Z,0.00
2022-12-27T03:29:05.380Z,0.00
2022-12-27T03:30:05.376Z,0.00
2022-12-27T03:31:05.401Z,0.00
2022-12-27T03:32:05.390Z,0.00
2022-12-27T03:33:05.347Z,0.00
2022-12-27T03:34:05.336Z,0.00
2022-12-27T03:35:05.346Z,0.00
2022-12-27T03:36:05.317Z,0.00
2022-12-27T03:37:44.193Z,0.00
2022-12-27T03:38:44.139Z,0.00
2022-12-27T03:39:44.129Z,0.00
2022-12-27T03:40:44.133Z,0.00
2022-12-27T03:41:44.133Z,0.00
2022-12-27T03:42:44.306Z,0.00
2022-12-27T03:43:44.097Z,0.00
2022-12-27T03:44:44.073Z,0.00
2022-12-27T03:45:44.071Z,0.00
2022-12-27T03:46:44.124Z,0.00
2022-12-27T03:47:44.076Z,0.00
2022-12-27T03:48:44.039Z,0.00
2022-12-27T03:49:44.039Z,0.00
2022-12-27T03:50:44.029Z,0.00
2022-12-27T03:51:44.273Z,0.00
2022-12-27T03:52:43.990Z,0.00
2022-12-27T03:53:44.197Z,0.00
2022-12-27T03:54:43.986Z,0.00
2022-12-27T03:56:43.956Z,0.00
2022-12-27T04:42:43.481Z,0.00
2022-12-27T04:43:43.564Z,0.00
2022-12-27T04:44:43.495Z,0.00
2022-12-27T04:46:43.484Z,0.00
2022-12-27T06:50:16.915Z,0.00
2022-12-27T06:52:16.936Z,0.00
2022-12-27T06:53:16.901Z,0.00
2022-12-27T06:54:16.879Z,0.00
2022-12-27T06:57:16.905Z,0.00
2022-12-27T06:58:16.844Z,0.00
2022-12-27T06:59:16.912Z,0.00
2022-12-27T07:00:16.868Z,0.00
2022-12-27T07:01:16.973Z,0.00
2022-12-27T07:02:16.942Z,0.00
2022-12-27T07:03:16.871Z,0.00
2022-12-27T07:04:16.781Z,0.00
2022-12-27T07:05:16.774Z,0.00
2022-12-27T07:06:16.767Z,0.00
2022-12-27T07:07:59.507Z,0.00
2022-12-27T07:08:59.498Z,0.00
2022-12-27T07:09:59.770Z,0.00
2022-12-27T07:10:59.517Z,0.00
2022-12-27T07:11:59.519Z,0.00
2022-12-27T07:12:59.463Z,0.00
2022-12-27T07:13:59.547Z,0.00
2022-12-27T07:14:59.495Z,0.00
2022-12-27T07:15:59.421Z,0.00
2022-12-27T07:16:59.470Z,0.00
2022-12-27T07:17:59.404Z,0.00
2022-12-27T07:18:59.404Z,0.00
2022-12-27T07:19:59.394Z,0.00
2022-12-27T07:20:59.582Z,0.00
2022-12-27T07:21:59.375Z,0.00
2022-12-27T07:22:59.365Z,0.00
2022-12-27T07:23:59.558Z,0.00
2022-12-27T07:24:59.549Z,0.00
2022-12-27T07:25:59.324Z,0.00
2022-12-27T07:26:59.523Z,0.00
2022-12-27T07:27:59.502Z,0.00
2022-12-27T07:28:59.311Z,5.62
2022-12-27T07:29:59.280Z,5.62
2022-12-27T07:30:59.306Z,5.62
2022-12-27T07:31:59.309Z,5.62
2022-12-27T07:32:59.277Z,5.62
2022-12-27T07:33:59.258Z,5.62
2022-12-27T07:34:59.254Z,5.62
2022-12-27T07:35:59.227Z,5.62
2022-12-27T07:36:59.222Z,5.62
2022-12-27T07:37:59.417Z,5.62
2022-12-27T07:38:59.202Z,11.25
2022-12-27T07:39:59.189Z,11.25
2022-12-27T07:40:59.186Z,11.25
2022-12-27T07:42:04.701Z,11.25
2022-12-27T07:43:01.195Z,11.25
2022-12-27T07:43:59.174Z,11.25
2022-12-27T07:44:59.200Z,11.25
2022-12-27T07:45:59.183Z,16.87
2022-12-27T07:46:59.152Z,16.87
2022-12-27T07:47:59.113Z,16.87
2022-12-27T07:48:59.308Z,16.87
2022-12-27T07:49:59.205Z,16.87
2022-12-27T07:50:59.129Z,22.50
2022-12-27T07:51:59.391Z,22.50
2022-12-27T07:52:59.059Z,22.50
2022-12-27T07:53:59.148Z,22.50
2022-12-27T07:54:59.245Z,22.50
2022-12-27T07:55:59.047Z,28.12
2022-12-27T07:56:59.041Z,28.12
2022-12-27T07:58:05.222Z,28.12
2022-12-27T07:58:59.058Z,28.12
2022-12-27T07:59:59.000Z,33.75
2022-12-27T08:01:05.132Z,33.75
2022-12-27T08:01:59.063Z,33.75
2022-12-27T08:02:59.050Z,39.37
2022-12-27T08:04:04.956Z,39.37
2022-12-27T08:04:58.946Z,39.37
2022-12-27T08:05:59.125Z,39.37
2022-12-27T08:06:58.925Z,45.00
2022-12-27T08:07:58.903Z,45.00
2022-12-27T08:08:58.902Z,45.00
2022-12-27T08:09:58.886Z,50.62
2022-12-27T08:11:05.153Z,50.62
2022-12-27T08:11:59.930Z,50.62
2022-12-27T08:12:58.865Z,50.62
2022-12-27T08:13:58.882Z,56.25
2022-12-27T08:14:59.079Z,56.25
2022-12-27T08:15:58.851Z,56.25
2022-12-27T08:16:58.877Z,56.25
2022-12-27T08:17:58.810Z,61.87
2022-12-27T08:19:02.038Z,61.87
2022-12-27T08:19:59.834Z,61.87
2022-12-27T08:20:58.783Z,61.87
2022-12-27T08:21:58.760Z,67.50
2022-12-27T08:22:58.769Z,67.50
2022-12-27T08:24:04.770Z,67.50
2022-12-27T08:24:58.953Z,67.50
2022-12-27T08:25:58.729Z,73.12
2022-12-27T08:26:58.729Z,73.12
2022-12-27T08:27:58.727Z,73.12
2022-12-27T08:28:58.704Z,78.75
2022-12-27T08:29:58.685Z,78.75
2022-12-27T08:30:58.714Z,78.75
2022-12-27T08:32:04.690Z,78.75
2022-12-27T08:32:58.665Z,84.37
2022-12-27T08:33:58.986Z,84.37
2022-12-27T08:35:12.117Z,84.37
2022-12-27T08:35:59.679Z,84.37
2022-12-27T08:36:58.678Z,90.00
2022-12-27T08:37:58.676Z,90.00
2022-12-27T08:38:58.625Z,90.00
2022-12-27T08:40:02.671Z,90.00
2022-12-27T08:40:58.590Z,95.62
2022-12-27T08:41:58.770Z,95.62
2022-12-27T08:42:58.566Z,95.62
2022-12-27T08:43:58.757Z,95.62
2022-12-27T08:44:58.585Z,95.62
2022-12-27T08:45:58.570Z,95.62
2022-12-27T08:46:58.527Z,95.62
2022-12-27T08:47:58.714Z,95.62
2022-12-27T08:48:58.510Z,95.62
2022-12-27T08:49:58.690Z,95.62
2022-12-27T08:50:58.708Z,101.25
2022-12-27T08:51:58.672Z,101.25
2022-12-27T08:52:58.536Z,106.87
2022-12-27T08:53:58.487Z,106.87
2022-12-27T08:54:58.474Z,112.50
2022-12-27T08:55:58.503Z,112.50
2022-12-27T08:56:58.426Z,112.50
2022-12-27T08:57:58.406Z,112.50
2022-12-27T08:58:58.406Z,112.50
2022-12-27T09:00:04.397Z,112.50
2022-12-27T09:00:58.498Z,118.12
2022-12-27T09:01:58.465Z,118.12
2022-12-27T09:02:58.397Z,123.75
2022-12-27T09:03:58.356Z,123.75
2022-12-27T09:04:58.354Z,129.37
2022-12-27T09:05:58.327Z,129.37
2022-12-27T09:06:58.355Z,129.37
2022-12-27T09:07:58.309Z,135.00
2022-12-27T09:08:58.308Z,140.62
2022-12-27T09:09:58.290Z,140.62
2022-12-27T09:10:58.283Z,140.62
2022-12-27T09:11:58.278Z,146.25
2022-12-27T09:13:04.276Z,151.87
2022-12-27T09:13:58.243Z,151.87
2022-12-27T09:15:32.961Z,157.50
2022-12-27T09:16:32.934Z,157.50
2022-12-27T09:17:33.120Z,163.12
2022-12-27T09:18:38.920Z,168.75
2022-12-27T09:19:32.899Z,168.75
2022-12-27T09:20:32.895Z,174.37
2022-12-27T09:21:32.875Z,180.00
2022-12-27T09:22:33.217Z,180.00
2022-12-27T09:23:32.854Z,185.62
2022-12-27T09:24:33.046Z,185.62
2022-12-27T09:25:32.858Z,191.25
2022-12-27T09:26:32.828Z,191.25
2022-12-27T09:27:32.813Z,196.87
2022-12-27T09:28:32.814Z,196.87
2022-12-27T09:29:32.796Z,208.12
2022-12-27T09:30:32.797Z,208.12
2022-12-27T09:31:32.905Z,219.37
2022-12-27T09:32:32.765Z,213.75
2022-12-27T09:33:32.749Z,219.37
2022-12-27T09:34:32.757Z,230.62
2022-12-27T09:35:38.941Z,253.12
2022-12-27T09:36:32.744Z,253.12
2022-12-27T09:37:32.708Z,275.62
2022-12-27T09:38:38.766Z,286.87
2022-12-27T09:39:32.696Z,315.00
2022-12-27T09:40:38.747Z,320.62
2022-12-27T09:42:26.033Z,348.75
2022-12-27T09:42:50.771Z,337.50
2022-12-27T09:43:34.111Z,320.62
2022-12-27T09:44:32.698Z,326.25
2022-12-27T09:45:32.636Z,326.25
2022-12-27T09:46:32.782Z,360.00
2022-12-27T09:47:32.613Z,360.00
2022-12-27T09:48:33.464Z,371.25
2022-12-27T09:49:32.589Z,405.00
2022-12-27T09:50:32.591Z,382.50
2022-12-27T09:51:38.579Z,388.12
2022-12-27T09:52:32.573Z,450.00
2022-12-27T09:53:38.559Z,466.87
2022-12-27T09:54:32.775Z,500.62
2022-12-27T09:55:32.528Z,523.12
2022-12-27T09:57:01.752Z,528.75
2022-12-27T09:57:33.546Z,483.75
2022-12-27T09:58:32.504Z,450.00
2022-12-27T09:59:32.483Z,438.75
2022-12-27T10:00:34.398Z,399.37
2022-12-27T10:01:32.779Z,393.75
2022-12-27T10:02:32.537Z,354.37
2022-12-27T10:03:32.438Z,371.25
2022-12-27T10:05:00.856Z,393.75
2022-12-27T10:05:33.504Z,393.75
2022-12-27T10:06:32.413Z,405.00
2022-12-27T10:07:32.418Z,399.37
2022-12-27T10:08:32.395Z,376.87
2022-12-27T10:09:32.395Z,393.75
2022-12-27T10:10:32.402Z,399.37
2022-12-27T10:11:32.368Z,393.75
2022-12-27T10:12:32.360Z,365.62
2022-12-27T10:13:32.358Z,376.87
2022-12-27T10:14:38.336Z,343.12
2022-12-27T10:15:32.337Z,354.37
2022-12-27T10:16:32.718Z,360.00
2022-12-27T10:17:32.505Z,376.87
2022-12-27T10:18:38.296Z,371.25
2022-12-27T10:19:32.340Z,365.62
2022-12-27T10:20:32.473Z,399.37
2022-12-27T10:21:32.265Z,438.75
2022-12-27T10:23:11.258Z,652.50
2022-12-27T10:24:17.252Z,821.25
2022-12-27T10:25:11.274Z,894.37
2022-12-27T10:26:11.311Z,838.12
2022-12-27T10:27:17.636Z,967.50
2022-12-27T10:28:11.201Z,1226.25
2022-12-27T10:29:17.419Z,1316.25
2022-12-27T10:30:11.192Z,1535.62
2022-12-27T10:31:11.227Z,1237.50
2022-12-27T10:32:11.217Z,1186.87
2022-12-27T10:33:11.151Z,1383.75
2022-12-27T10:34:13.682Z,1417.50
2022-12-27T10:35:11.140Z,1186.87
2022-12-27T10:36:11.113Z,1057.50
2022-12-27T10:37:11.298Z,1344.37
2022-12-27T10:38:11.079Z,1406.25
2022-12-27T10:39:11.073Z,1530.00
2022-12-27T10:40:11.054Z,1473.75
2022-12-27T10:41:11.049Z,1400.62
2022-12-27T10:42:11.062Z,1423.12
2022-12-27T10:43:11.034Z,1338.75
2022-12-27T10:44:11.224Z,1029.37
2022-12-27T10:45:11.039Z,624.37
2022-12-27T10:46:11.041Z,877.50
2022-12-27T10:47:11.058Z,990.00
2022-12-27T10:48:11.089Z,1012.50
2022-12-27T10:49:20.516Z,1040.62
2022-12-27T10:50:12.055Z,905.62
2022-12-27T10:51:11.175Z,708.75
2022-12-27T10:52:11.357Z,562.50
2022-12-27T10:53:11.131Z,472.50
2022-12-27T10:54:10.907Z,489.37
2022-12-27T10:55:10.901Z,635.62
2022-12-27T10:56:10.884Z,708.75
2022-12-27T10:57:10.884Z,871.87
2022-12-27T10:58:11.115Z,781.87
2022-12-27T10:59:11.065Z,630.00
2022-12-27T11:00:10.875Z,601.87
2022-12-27T11:01:10.881Z,624.37
2022-12-27T11:02:10.916Z,618.75
2022-12-27T11:03:10.818Z,556.87
2022-12-27T11:04:14.474Z,427.50
2022-12-27T11:05:11.845Z,382.50
2022-12-27T11:06:10.775Z,371.25
2022-12-27T11:07:10.971Z,495.00
2022-12-27T11:08:10.761Z,483.75
2022-12-27T11:09:10.833Z,472.50
2022-12-27T11:10:10.798Z,410.62
2022-12-27T11:11:10.807Z,354.37
2022-12-27T11:12:10.726Z,393.75
2022-12-27T11:13:10.727Z,360.00
2022-12-27T11:14:10.757Z,343.12
2022-12-27T11:15:10.697Z,320.62
2022-12-27T11:16:10.989Z,309.37
2022-12-27T11:17:10.867Z,309.37
2022-12-27T11:18:10.662Z,309.37
2022-12-27T11:19:10.648Z,315.00
2022-12-27T11:20:10.637Z,309.37
2022-12-27T11:21:17.655Z,298.12
2022-12-27T11:22:10.819Z,292.50
2022-12-27T11:23:10.614Z,281.25
2022-12-27T11:24:10.583Z,281.25
2022-12-27T11:25:10.583Z,281.25
2022-12-27T11:26:10.563Z,281.25
2022-12-27T11:27:10.575Z,286.87
2022-12-27T11:28:10.757Z,286.87
2022-12-27T11:29:16.632Z,292.50
2022-12-27T11:30:10.517Z,292.50
2022-12-27T11:31:16.618Z,292.50
2022-12-27T11:32:10.505Z,281.25
2022-12-27T11:33:10.492Z,286.87
2022-12-27T11:34:10.483Z,292.50
2022-12-27T11:35:10.479Z,286.87
2022-12-27T11:36:10.658Z,292.50
2022-12-27T11:37:10.461Z,303.75
2022-12-27T11:38:10.434Z,315.00
2022-12-27T11:39:10.461Z,315.00
2022-12-27T11:40:10.418Z,315.00
2022-12-27T11:41:16.630Z,320.62
2022-12-27T11:42:10.393Z,320.62
2022-12-27T11:43:10.447Z,326.25
2022-12-27T11:44:10.373Z,331.87
2022-12-27T11:45:10.804Z,331.87
2022-12-27T11:46:10.357Z,337.50
2022-12-27T11:47:10.385Z,343.12
2022-12-27T11:48:10.325Z,331.87
2022-12-27T11:49:10.345Z,320.62
2022-12-27T11:50:10.302Z,320.62
2022-12-27T11:51:10.303Z,326.25
2022-12-27T11:52:10.304Z,326.25
2022-12-27T11:53:10.299Z,331.87
2022-12-27T11:54:10.261Z,331.87
2022-12-27T11:55:10.358Z,331.87
2022-12-27T11:56:16.260Z,326.25
2022-12-27T11:57:10.349Z,326.25
2022-12-27T11:58:10.215Z,320.62
2022-12-27T11:59:10.293Z,326.25
2022-12-27T12:00:10.199Z,326.25
2022-12-27T12:01:10.222Z,320.62
2022-12-27T12:02:10.322Z,315.00
2022-12-27T12:03:10.422Z,315.00
2022-12-27T12:04:10.152Z,315.00
2022-12-27T12:05:49.108Z,315.00
2022-12-27T12:06:49.095Z,348.75
2022-12-27T12:07:48.898Z,365.62
2022-12-27T12:08:48.853Z,315.00
2022-12-27T12:09:50.919Z,303.75
2022-12-27T12:10:48.883Z,298.12
2022-12-27T12:11:54.599Z,298.12
2022-12-27T12:12:50.136Z,292.50
2022-12-27T12:13:55.079Z,286.87
2022-12-27T12:14:54.822Z,286.87
2022-12-27T12:15:48.776Z,275.62
2022-12-27T12:16:48.816Z,270.00
2022-12-27T12:17:48.803Z,258.75
2022-12-27T12:18:48.763Z,253.12
2022-12-27T12:19:48.737Z,247.50
2022-12-27T12:20:51.163Z,236.25
2022-12-27T12:21:48.733Z,236.25
2022-12-27T12:22:48.925Z,236.25
2022-12-27T12:23:48.702Z,241.87
2022-12-27T12:24:48.710Z,247.50
2022-12-27T12:25:48.680Z,253.12
2022-12-27T12:26:54.180Z,253.12
2022-12-27T12:27:49.702Z,247.50
2022-12-27T12:29:01.649Z,247.50
2022-12-27T12:29:49.690Z,247.50
2022-12-27T12:30:48.641Z,253.12
2022-12-27T12:31:48.686Z,247.50
2022-12-27T12:32:48.645Z,241.87
2022-12-27T12:33:48.792Z,236.25
2022-12-27T12:34:48.593Z,230.62
2022-12-27T12:35:48.574Z,230.62
2022-12-27T12:36:52.470Z,241.87
2022-12-27T12:37:48.629Z,236.25
2022-12-27T12:38:54.574Z,213.75
2022-12-27T12:39:48.537Z,208.12
2022-12-27T12:40:48.525Z,208.12
2022-12-27T12:41:48.745Z,196.87
2022-12-27T12:42:48.516Z,196.87
2022-12-27T12:43:48.493Z,196.87
2022-12-27T12:44:48.485Z,202.50
2022-12-27T12:45:48.524Z,202.50
2022-12-27T12:46:54.686Z,202.50
2022-12-27T12:47:48.462Z,202.50
2022-12-27T12:48:48.493Z,208.12
2022-12-27T12:49:48.429Z,213.75
2022-12-27T12:50:48.430Z,213.75
2022-12-27T12:51:48.603Z,219.37
2022-12-27T12:52:48.417Z,247.50
2022-12-27T12:53:48.581Z,298.12
2022-12-27T12:54:48.595Z,365.62
2022-12-27T12:55:48.377Z,393.75
2022-12-27T12:56:48.374Z,348.75
2022-12-27T12:57:48.549Z,337.50
2022-12-27T12:58:48.544Z,388.12
2022-12-27T12:59:48.522Z,461.25
2022-12-27T13:00:48.414Z,540.00
2022-12-27T13:01:50.985Z,630.00
2022-12-27T13:02:48.396Z,399.37
2022-12-27T13:03:48.282Z,247.50
2022-12-27T13:04:48.322Z,230.62
2022-12-27T13:05:48.490Z,191.25
2022-12-27T13:06:48.274Z,180.00
2022-12-27T13:07:48.235Z,174.37
2022-12-27T13:08:48.296Z,180.00
2022-12-27T13:09:48.303Z,180.00
2022-12-27T13:10:48.221Z,180.00
2022-12-27T13:11:48.407Z,168.75
2022-12-27T13:12:52.644Z,168.75
2022-12-27T13:13:48.182Z,174.37
2022-12-27T13:14:48.175Z,208.12
2022-12-27T13:15:48.173Z,213.75
2022-12-27T13:16:48.211Z,174.37
2022-12-27T13:17:48.154Z,163.12
2022-12-27T13:18:48.229Z,163.12
2022-12-27T13:19:48.315Z,168.75
2022-12-27T13:20:48.167Z,191.25
2022-12-27T13:21:48.097Z,196.87
2022-12-27T13:22:48.092Z,191.25
2022-12-27T13:23:48.072Z,213.75
2022-12-27T13:24:48.265Z,219.37
2022-12-27T13:25:48.048Z,191.25
2022-12-27T13:26:48.059Z,168.75
2022-12-27T13:27:48.030Z,157.50
2022-12-27T13:28:48.032Z,151.87
2022-12-27T13:29:48.007Z,151.87
2022-12-27T13:30:48.090Z,146.25
2022-12-27T13:31:47.986Z,146.25
2022-12-27T13:32:47.997Z,146.25
2022-12-27T13:33:48.172Z,146.25
2022-12-27T13:34:47.964Z,151.87
2022-12-27T13:35:48.146Z,157.50
2022-12-27T13:36:47.973Z,151.87
2022-12-27T13:37:47.926Z,146.25
2022-12-27T13:38:47.955Z,146.25
2022-12-27T13:39:47.910Z,135.00
2022-12-27T13:40:47.909Z,129.37
2022-12-27T13:41:48.369Z,123.75
2022-12-27T13:42:47.951Z,129.37
2022-12-27T13:43:47.890Z,140.62
2022-12-27T13:44:48.116Z,168.75
2022-12-27T13:45:48.415Z,202.50
2022-12-27T13:46:48.464Z,191.25
2022-12-27T13:47:48.225Z,185.62
2022-12-27T13:48:48.246Z,180.00
2022-12-27T13:49:53.832Z,157.50
2022-12-27T13:50:47.800Z,140.62
2022-12-27T13:51:47.923Z,146.25
2022-12-27T13:52:48.248Z,140.62
2022-12-27T13:53:47.773Z,140.62
2022-12-27T13:54:47.797Z,146.25
2022-12-27T13:55:47.749Z,140.62
2022-12-27T13:56:55.679Z,219.37
2022-12-27T13:57:49.717Z,151.87
2022-12-27T13:58:59.383Z,163.12
2022-12-27T13:59:48.747Z,168.75
2022-12-27T14:00:47.905Z,151.87
2022-12-27T14:01:47.785Z,146.25
2022-12-27T14:02:47.941Z,135.00
2022-12-27T14:03:47.869Z,123.75
2022-12-27T14:04:47.691Z,112.50
2022-12-27T14:05:47.842Z,118.12
2022-12-27T14:06:47.879Z,146.25
2022-12-27T14:07:47.626Z,140.62
2022-12-27T14:08:48.128Z,129.37
2022-12-27T14:09:53.609Z,135.00
2022-12-27T14:10:47.604Z,140.62
2022-12-27T14:11:47.596Z,185.62
2022-12-27T14:12:47.588Z,185.62
2022-12-27T14:13:47.569Z,213.75
2022-12-27T14:14:47.613Z,174.37
2022-12-27T14:15:47.588Z,140.62
2022-12-27T14:16:47.962Z,213.75
2022-12-27T14:17:47.509Z,444.37
2022-12-27T14:18:47.522Z,461.25
2022-12-27T14:19:47.512Z,326.25
2022-12-27T14:20:47.504Z,196.87
2022-12-27T14:21:47.543Z,146.25
2022-12-27T14:22:53.811Z,112.50
2022-12-27T14:23:48.496Z,101.25
2022-12-27T14:24:47.489Z,95.62
2022-12-27T14:25:47.436Z,95.62
2022-12-27T14:26:47.641Z,95.62
2022-12-27T14:27:47.486Z,95.62
2022-12-27T14:28:47.452Z,101.25
2022-12-27T14:29:47.391Z,95.62
2022-12-27T14:30:47.423Z,95.62
2022-12-27T14:31:53.588Z,95.62
2022-12-27T14:32:47.407Z,95.62
2022-12-27T14:33:47.364Z,112.50
2022-12-27T14:34:47.364Z,118.12
2022-12-27T14:35:47.542Z,101.25
2022-12-27T14:36:47.325Z,101.25
2022-12-27T14:37:47.332Z,101.25
2022-12-27T14:38:47.313Z,101.25
2022-12-27T14:39:53.739Z,106.87
2022-12-27T14:40:47.712Z,151.87
2022-12-27T14:41:47.470Z,174.37
2022-12-27T14:42:47.304Z,140.62
2022-12-27T14:43:47.450Z,106.87
2022-12-27T14:44:47.263Z,90.00
2022-12-27T14:45:50.004Z,78.75
2022-12-27T14:46:48.511Z,73.12
2022-12-27T14:47:47.207Z,73.12
2022-12-27T14:48:49.266Z,67.50
2022-12-27T14:49:47.199Z,67.50
2022-12-27T14:50:47.248Z,61.87
2022-12-27T14:52:00.385Z,61.87
2022-12-27T14:52:48.282Z,61.87
2022-12-27T14:53:47.146Z,56.25
2022-12-27T14:54:47.148Z,56.25
2022-12-27T14:55:47.360Z,56.25
2022-12-27T14:56:47.123Z,56.25
2022-12-27T14:57:47.120Z,50.62
2022-12-27T14:58:47.086Z,50.62
2022-12-27T14:59:47.106Z,45.00
2022-12-27T15:00:47.079Z,45.00
2022-12-27T15:01:53.211Z,45.00
2022-12-27T15:02:47.445Z,45.00
2022-12-27T15:03:47.123Z,50.62
2022-12-27T15:04:47.235Z,50.62
2022-12-27T15:05:47.072Z,45.00
2022-12-27T15:06:47.030Z,45.00
2022-12-27T15:07:47.011Z,39.37
2022-12-27T15:08:47.004Z,33.75
2022-12-27T15:09:47.203Z,33.75
2022-12-27T15:10:47.025Z,33.75
2022-12-27T15:11:46.985Z,33.75
2022-12-27T15:12:46.949Z,28.12
2022-12-27T15:13:46.986Z,28.12
2022-12-27T15:14:52.955Z,28.12
2022-12-27T15:15:46.939Z,28.12
2022-12-27T15:16:46.924Z,28.12
2022-12-27T15:17:46.902Z,28.12
2022-12-27T15:18:46.897Z,28.12
2022-12-27T15:19:46.895Z,22.50
2022-12-27T15:20:46.875Z,22.50
2022-12-27T15:21:47.278Z,22.50
2022-12-27T15:22:46.845Z,22.50
2022-12-27T15:23:46.907Z,22.50
2022-12-27T15:24:46.825Z,22.50
2022-12-27T15:25:52.835Z,16.87
2022-12-27T15:26:46.810Z,16.87
2022-12-27T15:27:46.830Z,16.87
2022-12-27T15:28:46.804Z,16.87
2022-12-27T15:29:46.779Z,16.87
2022-12-27T15:30:52.784Z,11.25
2022-12-27T15:31:46.763Z,11.25
2022-12-27T15:32:52.633Z,11.25
2022-12-27T15:33:47.782Z,11.25
2022-12-27T15:34:46.744Z,11.25
2022-12-27T15:35:46.720Z,11.25
2022-12-27T15:36:46.755Z,11.25
2022-12-27T15:37:52.714Z,5.62
2022-12-27T15:38:52.989Z,5.62
2022-12-27T15:39:47.724Z,5.62
2022-12-27T15:40:52.674Z,5.62
2022-12-27T15:41:46.662Z,5.62
2022-12-27T15:42:48.991Z,5.62
2022-12-27T15:43:46.675Z,5.62
2022-12-27T15:44:46.631Z,5.62
2022-12-27T15:45:46.704Z,5.62
2022-12-27T15:46:46.674Z,0.00
2022-12-27T15:47:46.604Z,0.00
2022-12-27T15:48:53.149Z,0.00
2022-12-27T15:49:48.792Z,0.00
2022-12-27T15:50:46.681Z,0.00
2022-12-27T15:51:46.553Z,0.00
2022-12-27T15:52:46.565Z,0.00
2022-12-27T15:53:46.547Z,0.00
2022-12-27T15:54:53.943Z,0.00
2022-12-27T15:55:46.518Z,0.00
2022-12-27T15:56:46.711Z,0.00
2022-12-27T15:57:46.494Z,0.00
2022-12-27T15:58:46.494Z,0.00
2022-12-27T15:59:46.498Z,0.00
2022-12-27T16:00:46.492Z,0.00